Time;durP1;ratioP1;P1;durP2;ratioP2;P2;SDS_P1;SDS_P2;PMS_P1;PMS_P2;Temp;Humidity;BMP_temperature;BMP_pressure;BME280_temperature;BME280_humidity;BME280_pressure;Samples;Min_cycle;Max_cycle;Signal;HPM_P1;HPM_P2
2022/10/14 00:01:04;;;;;;;33.75;24.90;;;;;;;12.11;100.00;101458.06;5027031;28;20465;-58
2022/10/14 00:03:29;;;;;;;34.90;25.25;;;;;;;12.13;100.00;101460.59;5040238;28;20032;-57
2022/10/14 00:05:55;;;;;;;34.00;25.45;;;;;;;12.13;100.00;101456.09;5043058;28;20039;-60
2022/10/14 00:08:20;;;;;;;34.65;25.58;;;;;;;12.14;100.00;101457.75;5028336;28;20108;-58
2022/10/14 00:10:45;;;;;;;32.85;24.98;;;;;;;12.14;100.00;101462.25;5031501;28;20033;-58
2022/10/14 00:13:11;;;;;;;34.42;25.77;;;;;;;12.14;100.00;101462.25;5033648;28;20025;-59
2022/10/14 00:15:38;;;;;;;35.03;24.95;;;;;;;12.11;100.00;101464.22;5039542;28;20115;-58
2022/10/14 00:18:04;;;;;;;34.90;24.52;;;;;;;12.14;100.00;101463.06;5028650;28;20060;-60
2022/10/14 00:20:29;;;;;;;31.48;24.38;;;;;;;12.14;100.00;101468.38;5028913;28;20033;-57
2022/10/14 00:22:55;;;;;;;32.33;24.80;;;;;;;12.16;100.00;101466.41;5036940;28;20038;-58
2022/10/14 00:25:20;;;;;;;35.10;25.65;;;;;;;12.13;100.00;101466.72;5038252;28;20037;-57
2022/10/14 00:27:46;;;;;;;34.75;25.15;;;;;;;12.14;100.00;101468.38;5030321;28;20026;-57
2022/10/14 00:30:11;;;;;;;34.63;24.70;;;;;;;12.13;100.00;101461.41;5032371;28;20401;-59
2022/10/14 00:32:36;;;;;;;32.15;24.92;;;;;;;12.13;100.00;101461.41;5033039;28;20488;-57
2022/10/14 00:35:02;;;;;;;32.10;24.30;;;;;;;12.14;100.00;101457.75;5033649;28;20033;-58
2022/10/14 00:37:27;;;;;;;33.40;25.25;;;;;;;12.13;100.00;101450.75;5031442;28;20029;-58
2022/10/14 00:39:52;;;;;;;34.03;25.33;;;;;;;12.13;100.00;101453.44;5041201;28;20791;-59
2022/10/14 00:42:18;;;;;;;34.40;25.10;;;;;;;12.14;100.00;101440.97;5033145;28;20060;-59
2022/10/14 00:44:43;;;;;;;35.22;24.92;;;;;;;12.14;100.00;101441.78;5034047;28;20090;-57
2022/10/14 00:47:08;;;;;;;34.65;25.50;;;;;;;12.13;100.00;101440.13;5029212;28;20037;-58
2022/10/14 00:49:39;;;;;;;34.55;26.42;;;;;;;12.10;100.00;101440.47;5040229;28;20029;-59
2022/10/14 00:52:09;;;;;;;34.08;25.30;;;;;;;12.08;100.00;101435.28;5038349;28;20032;-58
2022/10/14 00:54:47;;;;;;;34.03;25.73;;;;;;;12.11;100.00;101431.50;5038876;28;20025;-58
2022/10/14 00:57:13;;;;;;;34.10;26.27;;;;;;;12.11;100.00;101432.31;5031010;28;20039;-58
2022/10/14 00:59:39;;;;;;;41.10;27.45;;;;;;;12.08;100.00;101421.16;5030927;28;20034;-58
2022/10/14 01:02:04;;;;;;;36.92;26.63;;;;;;;12.09;100.00;101422.84;5040750;28;20091;-57
2022/10/14 01:04:30;;;;;;;39.30;27.15;;;;;;;12.10;100.00;101424.50;5040377;28;20534;-58
2022/10/14 01:07:34;;;;;;;37.03;26.90;;;;;;;12.14;100.00;101430.34;5035322;28;20033;-58
2022/10/14 01:10:14;;;;;;;39.20;27.52;;;;;;;12.07;100.00;101422.16;5031720;28;20834;-58
2022/10/14 01:13:08;;;;;;;36.60;26.38;;;;;;;12.11;100.00;101420.84;5030448;28;20415;-60
2022/10/14 01:15:45;;;;;;;41.03;27.88;;;;;;;12.10;100.00;101419.19;5034854;28;20041;-59
2022/10/14 01:18:48;;;;;;;41.97;28.05;;;;;;;12.12;100.00;101411.88;5034114;28;20539;-58
2022/10/14 01:21:30;;;;;;;36.35;26.17;;;;;;;12.11;100.00;101410.22;5032727;28;20094;-58
2022/10/14 01:24:20;;;;;;;36.72;27.27;;;;;;;12.13;100.00;101397.59;5037148;28;20255;-57
2022/10/14 01:27:06;;;;;;;41.13;27.65;;;;;;;12.11;100.00;101396.94;5037141;28;20028;-58
2022/10/14 01:29:54;;;;;;;38.00;27.48;;;;;;;12.09;100.00;101386.44;5037533;28;20128;-60
2022/10/14 01:32:27;;;;;;;38.13;27.88;;;;;;;12.04;100.00;101378.09;5031957;28;20033;-58
2022/10/14 01:34:57;;;;;;;39.95;27.95;;;;;;;12.04;100.00;101372.78;5044567;28;20115;-58
2022/10/14 01:37:26;;;;;;;38.83;27.42;;;;;;;12.04;100.00;101374.63;5031041;28;20041;-60
2022/10/14 01:39:58;;;;;;;38.70;28.05;;;;;;;12.01;100.00;101378.41;5030914;28;20130;-58
2022/10/14 01:42:30;;;;;;;38.65;27.20;;;;;;;12.00;100.00;101373.25;5039315;28;20128;-60
2022/10/14 01:45:05;;;;;;;41.33;27.43;;;;;;;12.01;100.00;101361.63;5039157;28;20498;-58
2022/10/14 01:47:33;;;;;;;38.60;28.20;;;;;;;11.97;100.00;101359.28;5034407;28;20033;-59
2022/10/14 01:50:08;;;;;;;43.83;28.98;;;;;;;12.00;100.00;101367.94;5034891;28;20079;-58
2022/10/14 01:52:39;;;;;;;39.13;28.98;;;;;;;11.95;100.00;101352.47;5035014;28;20135;-61
2022/10/14 01:55:11;;;;;;;42.22;28.23;;;;;;;11.97;100.00;101356.63;5033609;28;20025;-59
2022/10/14 01:57:40;;;;;;;42.53;28.80;;;;;;;11.98;100.00;101363.59;5038945;28;20116;-58
2022/10/14 02:00:06;;;;;;;41.78;28.70;;;;;;;12.02;100.00;101355.31;5038418;28;20279;-61
2022/10/14 02:02:35;;;;;;;42.13;27.70;;;;;;;12.01;100.00;101356.31;5029703;28;20037;-59
2022/10/14 02:05:06;;;;;;;41.88;28.15;;;;;;;11.98;100.00;101352.97;5039659;28;20753;-59
2022/10/14 02:08:03;;;;;;;42.38;28.05;;;;;;;12.02;100.00;101360.63;5031358;28;20048;-60
2022/10/14 02:11:05;;;;;;;41.13;28.08;;;;;;;12.04;100.00;101356.03;5033545;28;20075;-60
2022/10/14 02:13:49;;;;;;;43.80;28.13;;;;;;;12.02;100.00;101352.66;5037195;28;20033;-58
2022/10/14 02:16:20;;;;;;;42.47;27.48;;;;;;;11.97;100.00;101351.31;5028566;28;20045;-58
2022/10/14 02:19:04;;;;;;;41.90;27.17;;;;;;;11.98;100.00;101342.34;5042825;28;20075;-58
2022/10/14 02:21:37;;;;;;;44.03;26.80;;;;;;;11.98;100.00;101342.34;5035378;28;20037;-58
2022/10/14 02:24:12;;;;;;;41.20;27.83;;;;;;;11.99;100.00;101340.50;5033109;28;20376;-59
2022/10/14 02:26:39;;;;;;;42.05;27.27;;;;;;;11.97;100.00;101346.00;5033143;28;20064;-59
2022/10/14 02:29:05;;;;;;;40.65;27.17;;;;;;;12.00;100.00;101336.03;5038642;28;20120;-58
2022/10/14 02:31:33;;;;;;;44.60;27.92;;;;;;;11.97;100.00;101340.69;5032130;28;20070;-58
2022/10/14 02:34:04;;;;;;;43.65;27.48;;;;;;;11.90;100.00;101323.69;5030000;28;20043;-57
2022/10/14 02:36:31;;;;;;;42.60;27.13;;;;;;;12.00;100.00;101344.00;5041158;28;20114;-58
2022/10/14 02:38:59;;;;;;;42.95;27.20;;;;;;;11.98;100.00;101341.50;5043649;28;20198;-58
2022/10/14 02:41:29;;;;;;;42.03;26.15;;;;;;;12.00;100.00;101338.69;5034526;28;20470;-58
2022/10/14 02:43:55;;;;;;;42.58;26.95;;;;;;;12.02;100.00;101342.00;5031625;28;20107;-58
2022/10/14 02:46:21;;;;;;;44.80;27.17;;;;;;;12.04;100.00;101342.75;5036691;28;20108;-58
2022/10/14 02:48:47;;;;;;;44.95;27.35;;;;;;;12.04;100.00;101335.56;5027811;28;20029;-60
2022/10/14 02:51:13;;;;;;;49.15;27.55;;;;;;;12.06;100.00;101328.28;5027786;28;20871;-58
2022/10/14 02:53:38;;;;;;;50.70;27.30;;;;;;;12.07;100.00;101329.13;5037863;28;20030;-58
2022/10/14 02:56:04;;;;;;;50.83;26.55;;;;;;;12.06;100.00;101327.44;5032374;28;20052;-58
2022/10/14 02:58:29;;;;;;;49.92;26.98;;;;;;;12.07;100.00;101324.66;5039965;28;20096;-58
2022/10/14 03:00:54;;;;;;;45.85;26.25;;;;;;;12.08;100.00;101318.31;5035434;28;20036;-57
2022/10/14 03:03:20;;;;;;;50.58;26.85;;;;;;;12.08;100.00;101317.47;5030491;28;20029;-61
2022/10/14 03:05:46;;;;;;;50.50;26.27;;;;;;;12.08;100.00;101314.81;5038024;28;20033;-58
2022/10/14 03:08:11;;;;;;;51.05;26.73;;;;;;;12.07;100.00;101313.16;5040428;28;20091;-60
2022/10/14 03:10:36;;;;;;;43.78;24.88;;;;;;;12.06;100.00;101301.72;5037316;28;20638;-57
2022/10/14 03:13:02;;;;;;;45.00;25.40;;;;;;;12.09;100.00;101312.00;5043490;28;20564;-58
2022/10/14 03:15:28;;;;;;;44.28;25.48;;;;;;;12.10;100.00;101307.53;5036833;28;20060;-58
2022/10/14 03:17:53;;;;;;;46.13;25.33;;;;;;;12.09;100.00;101300.56;5036114;28;20029;-60
2022/10/14 03:20:19;;;;;;;45.22;24.88;;;;;;;12.09;100.00;101301.38;5041131;28;20032;-57
2022/10/14 03:22:44;;;;;;;48.25;26.23;;;;;;;12.09;100.00;101295.25;5028071;28;20079;-59
2022/10/14 03:25:10;;;;;;;46.22;24.67;;;;;;;12.11;100.00;101303.88;5028982;28;20040;-59
2022/10/14 03:27:35;;;;;;;44.17;25.60;;;;;;;12.11;100.00;101298.56;5038309;28;20044;-57
2022/10/14 03:30:01;;;;;;;46.25;25.40;;;;;;;12.12;100.00;101297.56;5035145;28;20476;-61
2022/10/14 03:32:26;;;;;;;42.70;25.05;;;;;;;12.12;100.00;101294.91;5029287;28;20120;-57
2022/10/14 03:34:51;;;;;;;40.88;23.90;;;;;;;12.13;100.00;101290.44;5043519;28;20029;-58
2022/10/14 03:37:16;;;;;;;42.92;24.85;;;;;;;12.13;100.00;101280.63;5032011;28;20044;-58
2022/10/14 03:39:42;;;;;;;42.83;24.17;;;;;;;12.13;100.00;101285.94;5041470;28;20044;-58
2022/10/14 03:42:07;;;;;;;39.47;23.77;;;;;;;12.14;100.00;101278.81;5034469;28;20041;-58
2022/10/14 03:44:32;;;;;;;42.35;24.88;;;;;;;12.11;100.00;101274.66;5029703;28;20037;-57
2022/10/14 03:46:58;;;;;;;41.50;23.77;;;;;;;12.12;100.00;101278.97;5037411;28;20788;-58
2022/10/14 03:49:23;;;;;;;42.92;24.45;;;;;;;12.12;100.00;101268.31;5031582;28;20079;-58
2022/10/14 03:51:49;;;;;;;37.38;23.05;;;;;;;12.12;100.00;101271.00;5038506;28;20575;-57
2022/10/14 03:54:14;;;;;;;38.53;23.33;;;;;;;12.13;100.00;101270.00;5034371;28;20032;-60
2022/10/14 03:56:39;;;;;;;37.17;22.42;;;;;;;12.13;100.00;101270.00;5038081;28;20037;-59
2022/10/14 03:59:04;;;;;;;40.10;23.13;;;;;;;12.14;100.00;101262.84;5027465;28;20025;-57
2022/10/14 04:01:30;;;;;;;34.88;21.85;;;;;;;12.16;100.00;101271.50;5026083;28;20392;-58
2022/10/14 04:03:56;;;;;;;36.08;22.60;;;;;;;12.16;100.00;101271.50;5036251;28;20029;-58
2022/10/14 04:06:21;;;;;;;36.70;22.67;;;;;;;12.16;100.00;101267.03;5033467;28;20034;-59
2022/10/14 04:08:46;;;;;;;35.58;22.80;;;;;;;12.16;100.00;101266.19;5026368;28;20064;-58
2022/10/14 04:11:12;;;;;;;33.22;21.67;;;;;;;12.16;100.00;101259.03;5033730;28;20026;-59
2022/10/14 04:13:37;;;;;;;34.10;21.55;;;;;;;12.16;100.00;101264.38;5032776;28;20040;-59
2022/10/14 04:16:07;;;;;;;33.78;21.23;;;;;;;12.14;100.00;101261.00;5029889;28;20084;-59
2022/10/14 04:18:33;;;;;;;35.10;21.75;;;;;;;12.16;100.00;101259.03;5040085;28;20052;-58
2022/10/14 04:21:05;;;;;;;32.88;20.77;;;;;;;12.13;100.00;101254.03;5037525;28;20112;-58
2022/10/14 04:23:30;;;;;;;36.92;21.27;;;;;;;12.14;100.00;101249.56;5032392;28;20037;-59
2022/10/14 04:25:56;;;;;;;32.63;21.08;;;;;;;12.16;100.00;101252.88;5032706;28;20075;-59
2022/10/14 04:28:21;;;;;;;33.97;20.73;;;;;;;12.14;100.00;101249.56;5034372;28;20044;-60
2022/10/14 04:30:46;;;;;;;33.20;20.23;;;;;;;12.14;100.00;101245.06;5036078;28;20691;-58
2022/10/14 04:33:12;;;;;;;32.42;19.73;;;;;;;12.15;100.00;101244.09;5039634;28;20040;-59
2022/10/14 04:35:37;;;;;;;31.13;19.98;;;;;;;12.14;100.00;101245.06;5039171;28;20536;-58
2022/10/14 04:38:02;;;;;;;30.30;19.55;;;;;;;12.16;100.00;101252.88;5037373;28;20024;-62
2022/10/14 04:40:29;;;;;;;28.83;18.85;;;;;;;12.13;100.00;101238.09;5037883;28;20120;-60
2022/10/14 04:42:56;;;;;;;28.20;18.77;;;;;;;12.16;100.00;101235.13;5035684;28;20056;-59
2022/10/14 04:45:22;;;;;;;30.77;18.85;;;;;;;12.16;100.00;101237.78;5026635;28;20041;-59
2022/10/14 04:47:47;;;;;;;28.50;18.92;;;;;;;12.16;100.00;101242.25;5031477;28;20048;-59
2022/10/14 04:50:13;;;;;;;26.02;18.33;;;;;;;12.17;100.00;101233.28;5029359;28;20128;-58
2022/10/14 04:52:38;;;;;;;30.48;18.42;;;;;;;12.13;100.00;101226.63;5032076;28;20392;-59
2022/10/14 04:55:04;;;;;;;31.08;19.08;;;;;;;12.17;100.00;101228.81;5029431;28;20120;-60
2022/10/14 04:57:29;;;;;;;29.15;18.55;;;;;;;12.16;100.00;101232.47;5025506;28;20052;-59
2022/10/14 04:59:54;;;;;;;29.90;18.42;;;;;;;12.15;100.00;101220.16;5026216;28;20021;-60
2022/10/14 05:02:19;;;;;;;28.10;18.33;;;;;;;12.18;100.00;101229.66;5031149;28;20120;-58
2022/10/14 05:04:45;;;;;;;31.10;17.85;;;;;;;12.18;100.00;101225.13;5030702;28;20395;-60
2022/10/14 05:07:11;;;;;;;28.95;18.55;;;;;;;12.18;100.00;101224.34;5031026;28;20049;-59
2022/10/14 05:09:36;;;;;;;27.25;17.42;;;;;;;12.17;100.00;101218.16;5027278;28;20033;-57
2022/10/14 05:12:01;;;;;;;23.02;16.48;;;;;;;12.19;100.00;101215.34;5026969;28;20049;-60
2022/10/14 05:14:27;;;;;;;25.60;16.92;;;;;;;12.17;100.00;101210.19;5028134;28;20504;-58
2022/10/14 05:16:52;;;;;;;25.58;16.63;;;;;;;12.18;100.00;101208.38;5022616;28;20057;-58
2022/10/14 05:19:17;;;;;;;24.90;16.73;;;;;;;12.18;100.00;101209.19;5026971;28;21103;-57
2022/10/14 05:21:42;;;;;;;24.35;16.00;;;;;;;12.20;100.00;101207.19;5024622;28;20041;-57
2022/10/14 05:24:08;;;;;;;24.83;15.90;;;;;;;12.20;100.00;101207.19;5030465;28;20025;-58
2022/10/14 05:26:33;;;;;;;27.95;15.57;;;;;;;12.22;100.00;101205.22;5029187;28;20500;-59
2022/10/14 05:28:58;;;;;;;22.65;15.70;;;;;;;12.20;100.00;101193.91;5024453;28;20042;-61
2022/10/14 05:31:24;;;;;;;24.90;15.25;;;;;;;12.21;100.00;101190.28;5027156;28;20028;-60
2022/10/14 05:33:49;;;;;;;23.83;14.48;;;;;;;12.21;100.00;101186.75;5029372;28;20029;-58
2022/10/14 05:36:14;;;;;;;23.40;15.15;;;;;;;12.21;100.00;101171.66;5025235;28;20033;-59
2022/10/14 05:38:40;;;;;;;18.33;13.43;;;;;;;12.21;100.00;101176.97;5026129;28;20033;-60
2022/10/14 05:41:05;;;;;;;20.98;14.23;;;;;;;12.23;100.00;101180.28;5024545;28;20092;-59
2022/10/14 05:43:31;;;;;;;21.50;14.05;;;;;;;12.22;100.00;101180.44;5025002;28;20059;-64
2022/10/14 05:45:57;;;;;;;19.48;13.38;;;;;;;12.21;100.00;101171.66;5027309;28;20037;-64
2022/10/14 05:48:22;;;;;;;19.98;13.07;;;;;;;12.24;100.00;101175.81;5026757;28;20128;-62
2022/10/14 05:50:47;;;;;;;18.20;12.63;;;;;;;12.23;100.00;101164.34;5026983;28;20557;-60
2022/10/14 05:53:13;;;;;;;20.75;13.00;;;;;;;12.19;100.00;101156.88;5024283;28;20033;-58
2022/10/14 05:55:40;;;;;;;18.50;12.98;;;;;;;12.23;100.00;101163.50;5029880;28;20108;-60
2022/10/14 05:58:05;;;;;;;19.10;12.52;;;;;;;12.23;100.00;101156.34;5026841;28;20513;-58
2022/10/14 06:00:30;;;;;;;18.27;12.80;;;;;;;12.26;100.00;101167.66;5028394;28;20032;-58
2022/10/14 06:02:57;;;;;;;19.33;13.20;;;;;;;12.24;100.00;101159.88;5025484;28;20354;-59
2022/10/14 06:05:23;;;;;;;20.25;13.07;;;;;;;12.24;100.00;101168.66;5025458;28;20037;-59
2022/10/14 06:07:48;;;;;;;18.17;12.60;;;;;;;12.24;100.00;101160.69;5028594;28;20079;-58
2022/10/14 06:10:14;;;;;;;18.70;12.45;;;;;;;12.24;100.00;101155.34;5028704;28;20507;-58
2022/10/14 06:12:40;;;;;;;20.67;12.93;;;;;;;12.27;100.00;101158.69;5027624;28;20037;-58
2022/10/14 06:15:05;;;;;;;17.98;12.38;;;;;;;12.28;100.00;101163.03;5042931;28;20589;-58
2022/10/14 06:17:31;;;;;;;16.88;12.07;;;;;;;12.28;100.00;101145.22;5034882;28;20834;-58
2022/10/14 06:19:56;;;;;;;20.23;12.55;;;;;;;12.28;100.00;101147.06;5040116;28;20077;-60
2022/10/14 06:22:21;;;;;;;18.13;12.25;;;;;;;12.30;100.00;101145.06;5039416;28;20504;-58
2022/10/14 06:24:46;;;;;;;19.83;12.57;;;;;;;12.28;100.00;101144.41;5040190;28;20040;-58
2022/10/14 06:27:12;;;;;;;17.77;12.32;;;;;;;12.30;100.00;101147.72;5042444;28;20560;-59
2022/10/14 06:29:37;;;;;;;17.42;12.18;;;;;;;12.30;100.00;101153.03;5029410;28;20032;-59
2022/10/14 06:32:04;;;;;;;16.85;11.95;;;;;;;12.29;100.00;101154.03;5035795;28;20034;-58
2022/10/14 06:34:30;;;;;;;18.40;12.30;;;;;;;12.32;100.00;101137.75;5027565;28;20086;-59
2022/10/14 06:36:55;;;;;;;17.75;12.23;;;;;;;12.32;100.00;101151.03;5039340;28;20427;-59
2022/10/14 06:39:21;;;;;;;17.95;12.25;;;;;;;12.34;100.00;101143.75;5022617;28;20519;-58
2022/10/14 06:41:46;;;;;;;18.73;12.93;;;;;;;12.34;100.00;101143.75;5022784;28;20510;-58
2022/10/14 06:44:12;;;;;;;18.27;11.95;;;;;;;12.35;100.00;101140.09;5027469;28;20099;-60
2022/10/14 06:46:38;;;;;;;18.52;12.45;;;;;;;12.35;100.00;101145.41;5026816;28;20077;-58
2022/10/14 06:49:03;;;;;;;18.65;12.18;;;;;;;12.38;100.00;101150.38;5021555;28;20730;-58
2022/10/14 06:51:28;;;;;;;17.85;12.32;;;;;;;12.38;100.00;101142.41;5022629;28;20017;-60
2022/10/14 06:53:53;;;;;;;18.20;12.70;;;;;;;12.37;100.00;101138.09;5032589;28;20107;-58
2022/10/14 06:56:19;;;;;;;17.52;12.02;;;;;;;12.38;100.00;101140.59;5020974;28;20048;-59
2022/10/14 06:58:44;;;;;;;18.20;12.25;;;;;;;12.38;100.00;101135.25;5024936;28;20124;-59
2022/10/14 07:01:09;;;;;;;21.15;12.63;;;;;;;12.41;100.00;101135.91;5031812;28;20366;-60
2022/10/14 07:03:38;;;;;;;18.42;12.57;;;;;;;12.39;100.00;101133.44;5025804;28;20030;-60
2022/10/14 07:06:04;;;;;;;18.25;12.40;;;;;;;12.42;100.00;101119.81;5027151;28;20034;-59
2022/10/14 07:08:29;;;;;;;19.38;11.90;;;;;;;12.44;100.00;101120.47;5026323;28;20155;-59
2022/10/14 07:10:55;;;;;;;19.55;12.27;;;;;;;12.44;100.00;101116.97;5028067;28;20143;-58
2022/10/14 07:13:20;;;;;;;17.17;11.63;;;;;;;12.45;100.00;101114.16;5031547;28;20477;-60
2022/10/14 07:15:49;;;;;;;17.95;12.10;;;;;;;12.45;100.00;101118.63;5034342;28;20365;-58
2022/10/14 07:18:15;;;;;;;19.80;11.82;;;;;;;12.46;100.00;101126.47;5030264;28;20040;-58
2022/10/14 07:20:40;;;;;;;19.08;12.45;;;;;;;12.49;100.00;101125.28;5034559;28;20033;-58
2022/10/14 07:23:06;;;;;;;18.60;12.57;;;;;;;12.49;100.00;101130.63;5024638;28;20036;-58
2022/10/14 07:25:31;;;;;;;18.50;11.90;;;;;;;12.50;100.00;101132.28;5024212;28;20037;-61
2022/10/14 07:27:57;;;;;;;18.25;11.98;;;;;;;12.51;100.00;101134.78;5024387;28;20033;-61
2022/10/14 07:30:23;;;;;;;17.55;12.00;;;;;;;12.54;100.00;101135.44;5024945;28;20041;-60
2022/10/14 07:32:48;;;;;;;17.77;12.15;;;;;;;12.54;100.00;101138.09;5022616;28;20030;-60
2022/10/14 07:35:14;;;;;;;17.30;12.05;;;;;;;12.57;100.00;101143.06;5032558;28;20102;-59
2022/10/14 07:37:39;;;;;;;17.17;11.95;;;;;;;12.59;100.00;101146.41;5025666;28;20021;-60
2022/10/14 07:40:05;;;;;;;16.50;11.65;;;;;;;12.60;100.00;101140.06;5019267;28;20033;-61
2022/10/14 07:42:30;;;;;;;17.42;11.50;;;;;;;12.60;100.00;101132.94;5028977;28;20416;-57
2022/10/14 07:44:56;;;;;;;16.73;11.68;;;;;;;12.62;100.00;101135.41;5029394;28;20064;-59
2022/10/14 07:47:22;;;;;;;18.17;11.70;;;;;;;12.62;100.00;101130.09;5024463;28;20124;-58
2022/10/14 07:49:47;;;;;;;16.77;11.65;;;;;;;12.64;100.00;101133.44;5037393;28;20885;-59
2022/10/14 07:52:14;;;;;;;18.02;12.15;;;;;;;12.65;100.00;101135.91;5027823;28;20087;-61
2022/10/14 07:54:39;;;;;;;18.65;12.38;;;;;;;12.65;100.00;101119.13;5025009;28;20642;-64
2022/10/14 07:57:05;;;;;;;19.50;12.23;;;;;;;12.67;100.00;101122.44;5041777;28;20029;-58
2022/10/14 07:59:30;;;;;;;18.50;12.25;;;;;;;12.69;100.00;101120.47;5036537;28;20029;-60
2022/10/14 08:01:55;;;;;;;17.50;11.77;;;;;;;12.70;100.00;101111.47;5030790;28;20032;-61
2022/10/14 08:04:22;;;;;;;18.55;12.20;;;;;;;12.72;100.00;101114.78;5032458;28;20116;-60
2022/10/14 08:06:48;;;;;;;19.38;11.75;;;;;;;12.75;100.00;101113.63;5021025;28;20622;-59
2022/10/14 08:09:13;;;;;;;18.67;12.00;;;;;;;12.78;100.00;101114.09;5020106;28;20041;-60
2022/10/14 08:11:39;;;;;;;17.90;11.40;;;;;;;12.83;100.00;101115.44;5031088;28;20048;-57
2022/10/14 08:14:05;;;;;;;17.33;12.45;;;;;;;12.85;100.00;101114.28;5036941;28;20032;-57
2022/10/14 08:16:34;;;;;;;18.25;11.77;;;;;;;12.87;100.00;101116.75;5021758;28;20029;-59
2022/10/14 08:19:05;;;;;;;18.65;12.25;;;;;;;12.89;100.00;101114.75;5035832;28;20037;-61
2022/10/14 08:21:31;;;;;;;18.30;11.80;;;;;;;12.92;100.00;101111.75;5028797;28;20037;-58
2022/10/14 08:23:57;;;;;;;17.70;11.35;;;;;;;12.94;100.00;101103.59;5034931;28;20037;-58
2022/10/14 08:26:33;;;;;;;17.17;11.55;;;;;;;12.94;100.00;101101.78;5027151;28;20024;-59
2022/10/14 08:29:00;;;;;;;16.23;11.73;;;;;;;12.96;100.00;101097.09;5025499;28;20037;-59
2022/10/14 08:31:26;;;;;;;17.25;11.23;;;;;;;12.99;100.00;101107.41;5031138;28;20473;-59
2022/10/14 08:33:51;;;;;;;16.85;11.27;;;;;;;13.00;100.00;101102.91;5022622;28;20064;-57
2022/10/14 08:36:18;;;;;;;18.20;11.25;;;;;;;13.02;100.00;101109.72;5025022;28;20087;-58
2022/10/14 08:38:43;;;;;;;16.33;10.73;;;;;;;13.03;100.00;101110.56;5031863;28;20044;-59
2022/10/14 08:41:11;;;;;;;16.85;11.27;;;;;;;13.04;100.00;101113.03;5037679;28;20037;-58
2022/10/14 08:43:42;;;;;;;17.00;11.13;;;;;;;13.07;100.00;101111.06;5039263;28;20053;-58
2022/10/14 08:46:22;;;;;;;16.77;11.20;;;;;;;13.11;100.00;101104.38;5033275;28;20485;-58
2022/10/14 08:48:49;;;;;;;17.20;11.88;;;;;;;13.12;100.00;101106.06;5032191;28;20052;-59
2022/10/14 08:51:18;;;;;;;15.75;11.80;;;;;;;13.15;100.00;101103.03;5037149;28;20033;-58
2022/10/14 08:53:55;;;;;;;16.58;11.55;;;;;;;13.18;100.00;101102.69;5022818;28;20037;-59
2022/10/14 08:56:22;;;;;;;17.40;11.70;;;;;;;13.16;100.00;101100.19;5019636;28;20394;-58
2022/10/14 08:58:49;;;;;;;17.08;11.80;;;;;;;13.20;100.00;101098.03;5020251;28;20036;-59
2022/10/14 09:01:23;;;;;;;16.55;11.63;;;;;;;13.24;100.00;101101.16;5022565;28;20051;-60
2022/10/14 09:03:52;;;;;;;16.38;11.60;;;;;;;13.23;100.00;101100.31;5025753;28;20033;-58
2022/10/14 09:06:29;;;;;;;16.17;11.75;;;;;;;13.26;100.00;101100.00;5033402;28;20077;-58
2022/10/14 09:09:17;;;;;;;18.33;12.05;;;;;;;13.29;100.00;101093.50;5025922;28;20037;-59
2022/10/14 09:11:47;;;;;;;19.40;11.90;;;;;;;13.30;100.00;101090.66;5039987;28;20041;-61
2022/10/14 09:14:18;;;;;;;17.40;11.80;;;;;;;13.34;100.00;101090.31;5038807;28;20064;-59
2022/10/14 09:16:48;;;;;;;16.58;11.32;;;;;;;13.37;100.00;101087.31;5031472;28;20112;-58
2022/10/14 09:19:21;;;;;;;15.93;10.73;;;;;;;13.40;100.00;101084.28;5033580;28;20029;-59
2022/10/14 09:21:53;;;;;;;15.68;11.02;;;;;;;13.42;100.00;101082.28;5031002;28;20033;-60
2022/10/14 09:24:27;;;;;;;15.02;10.60;;;;;;;13.45;100.00;101088.09;5034689;28;20036;-59
2022/10/14 09:27:12;;;;;;;15.23;10.40;;;;;;;13.45;100.00;101087.25;5040169;28;20082;-58
2022/10/14 09:29:48;;;;;;;16.10;10.55;;;;;;;13.49;100.00;101077.94;5028391;28;20113;-60
2022/10/14 09:32:43;;;;;;;14.57;10.60;;;;;;;13.52;100.00;101074.91;5028603;28;20037;-58
2022/10/14 09:35:36;;;;;;;13.45;10.15;;;;;;;13.51;100.00;101081.25;5025771;28;20409;-60
2022/10/14 09:38:02;;;;;;;15.00;10.20;;;;;;;13.50;100.00;101079.59;5024058;28;20041;-59
2022/10/14 09:40:35;;;;;;;14.73;9.73;;;;;;;13.49;100.00;101075.28;5035715;28;20033;-58
2022/10/14 09:43:07;;;;;;;14.73;10.25;;;;;;;13.53;100.00;101073.91;5026163;28;20150;-59
2022/10/14 09:45:56;;;;;;;12.65;9.82;;;;;;;13.55;100.00;101071.91;5024610;28;20033;-61
2022/10/14 09:48:47;;;;;;;15.73;9.80;;;;;;;13.55;100.00;101074.59;5021171;28;20381;-58
2022/10/14 09:51:22;;;;;;;12.38;9.30;;;;;;;13.56;100.00;101072.72;5035295;28;20451;-59
2022/10/14 09:53:56;;;;;;;15.50;10.10;;;;;;;13.57;100.00;101069.91;5035015;28;20049;-58
2022/10/14 09:56:35;;;;;;;14.52;9.73;;;;;;;13.62;100.00;101076.53;5032723;28;20039;-59
2022/10/14 09:59:03;;;;;;;12.80;9.70;;;;;;;13.62;100.00;101065.88;5027798;28;20036;-58
2022/10/14 10:01:36;;;;;;;15.70;10.48;;;;;;;13.67;100.00;101061.66;5028223;28;20120;-59
2022/10/14 10:04:32;;;;;;;14.32;10.27;;;;;;;13.69;100.00;101061.50;5029978;28;20037;-58
2022/10/14 10:07:00;;;;;;;13.77;10.30;;;;;;;13.70;100.00;101057.81;5026437;28;20060;-59
2022/10/14 10:09:26;;;;;;;14.07;9.90;;;;;;;13.71;100.00;101064.81;5027047;28;20703;-59
2022/10/14 10:11:52;;;;;;;14.48;10.32;;;;;;;13.71;100.00;101051.47;5034712;28;20108;-58
2022/10/14 10:14:32;;;;;;;15.02;10.45;;;;;;;13.71;100.00;101055.00;5036827;28;20103;-58
2022/10/14 10:17:06;;;;;;;15.95;11.13;;;;;;;13.70;100.00;101063.16;5025404;28;20036;-60
2022/10/14 10:19:37;;;;;;;15.25;11.25;;;;;;;13.71;100.00;101054.16;5024502;28;20029;-59
2022/10/14 10:22:17;;;;;;;16.20;10.82;;;;;;;13.72;100.00;101053.16;5036895;28;20033;-58
2022/10/14 10:24:43;;;;;;;15.90;11.45;;;;;;;13.71;100.00;101048.81;5038176;28;20040;-57
2022/10/14 10:27:26;;;;;;;16.92;11.27;;;;;;;13.69;100.00;101040.19;5039625;28;20110;-59
2022/10/14 10:29:55;;;;;;;17.48;11.40;;;;;;;13.70;100.00;101039.16;5031015;28;20071;-59
2022/10/14 10:32:49;;;;;;;17.67;11.68;;;;;;;13.71;100.00;101033.66;5026733;28;20043;-59
2022/10/14 10:36:01;;;;;;;14.95;11.43;;;;;;;13.73;100.00;101033.50;5031959;28;20589;-58
2022/10/14 10:38:36;;;;;;;17.38;11.75;;;;;;;13.73;100.00;101025.50;5024342;28;20452;-59
2022/10/14 10:41:18;;;;;;;18.45;11.88;;;;;;;13.77;100.00;101025.97;5038230;28;20040;-61
2022/10/14 10:44:07;;;;;;;17.63;11.83;;;;;;;13.76;100.00;101030.47;5022605;28;20161;-59
2022/10/14 10:46:39;;;;;;;17.35;11.80;;;;;;;13.83;100.00;101028.75;5031190;28;20083;-58
2022/10/14 10:49:29;;;;;;;16.20;11.63;;;;;;;13.82;100.00;101019.09;5037692;28;20036;-57
2022/10/14 10:52:04;;;;;;;15.93;10.93;;;;;;;13.89;100.00;101029.03;5023874;28;20633;-58
2022/10/14 10:54:54;;;;;;;14.52;10.48;;;;;;;13.90;100.00;101030.69;5029403;28;20385;-60
2022/10/14 10:57:30;;;;;;;13.65;10.45;;;;;;;13.91;100.00;101021.72;5024815;28;20041;-58
2022/10/14 11:00:09;;;;;;;13.23;10.25;;;;;;;13.93;100.00;101025.00;5028783;28;20040;-60
2022/10/14 11:02:43;;;;;;;14.20;9.75;;;;;;;13.94;100.00;101024.84;5021690;28;20036;-58
2022/10/14 11:05:22;;;;;;;11.95;9.88;;;;;;;13.94;100.00;101018.66;5019936;28;20037;-60
2022/10/14 11:12:01;;;;;;;12.25;9.18;;;;;;;13.93;100.00;101009.03;5028631;28;20040;-58
2022/10/14 11:14:28;;;;;;;11.57;9.68;;;;;;;13.94;100.00;101010.66;5023848;28;20041;-57
2022/10/14 11:17:32;;;;;;;12.20;9.70;;;;;;;13.94;100.00;101005.34;5021915;28;20460;-57